sensor_id;sensor_type;location;lat;lon;timestamp;temperature;humidity
62575;DHT22;53112;45.602;11.904;2023-02-08T00:00:34;0.00;59.70
62575;DHT22;53112;45.602;11.904;2023-02-08T00:03:00;-0.10;58.90
62575;DHT22;53112;45.602;11.904;2023-02-08T00:05:26;-0.30;62.00
62575;DHT22;53112;45.602;11.904;2023-02-08T00:07:52;-0.20;60.30
62575;DHT22;53112;45.602;11.904;2023-02-08T00:10:18;-0.10;60.70
62575;DHT22;53112;45.602;11.904;2023-02-08T00:12:44;-0.10;61.00
62575;DHT22;53112;45.602;11.904;2023-02-08T00:15:10;-0.10;60.30
62575;DHT22;53112;45.602;11.904;2023-02-08T00:17:36;0.00;59.80
62575;DHT22;53112;45.602;11.904;2023-02-08T00:20:03;0.00;59.50
62575;DHT22;53112;45.602;11.904;2023-02-08T00:22:29;-0.20;60.60
62575;DHT22;53112;45.602;11.904;2023-02-08T00:24:55;-0.50;61.60
62575;DHT22;53112;45.602;11.904;2023-02-08T00:27:21;-0.70;62.90
62575;DHT22;53112;45.602;11.904;2023-02-08T00:29:47;-0.60;62.30
62575;DHT22;53112;45.602;11.904;2023-02-08T00:32:13;-0.70;63.50
62575;DHT22;53112;45.602;11.904;2023-02-08T00:34:39;-0.40;62.40
62575;DHT22;53112;45.602;11.904;2023-02-08T00:37:05;-0.30;61.60
62575;DHT22;53112;45.602;11.904;2023-02-08T00:39:32;-0.30;60.80
62575;DHT22;53112;45.602;11.904;2023-02-08T00:41:57;-0.40;61.30
62575;DHT22;53112;45.602;11.904;2023-02-08T00:44:23;-0.40;60.70
62575;DHT22;53112;45.602;11.904;2023-02-08T00:46:49;-0.40;60.40
62575;DHT22;53112;45.602;11.904;2023-02-08T00:49:15;-0.40;60.70
62575;DHT22;53112;45.602;11.904;2023-02-08T00:51:41;-0.40;60.50
62575;DHT22;53112;45.602;11.904;2023-02-08T00:54:13;-0.60;61.60
62575;DHT22;53112;45.602;11.904;2023-02-08T00:56:39;-0.60;60.60
62575;DHT22;53112;45.602;11.904;2023-02-08T00:59:05;-0.60;60.30
62575;DHT22;53112;45.602;11.904;2023-02-08T01:01:31;-0.50;60.20
62575;DHT22;53112;45.602;11.904;2023-02-08T01:03:57;-0.50;60.20
62575;DHT22;53112;45.602;11.904;2023-02-08T01:06:23;-0.60;61.90
62575;DHT22;53112;45.602;11.904;2023-02-08T01:08:49;-0.40;60.50
62575;DHT22;53112;45.602;11.904;2023-02-08T01:11:19;-0.40;60.40
62575;DHT22;53112;45.602;11.904;2023-02-08T01:13:47;-0.50;60.80
62575;DHT22;53112;45.602;11.904;2023-02-08T01:16:18;-0.50;61.40
62575;DHT22;53112;45.602;11.904;2023-02-08T01:18:47;-0.40;61.20
62575;DHT22;53112;45.602;11.904;2023-02-08T01:21:16;-0.40;58.90
62575;DHT22;53112;45.602;11.904;2023-02-08T01:23:43;-0.50;59.60
62575;DHT22;53112;45.602;11.904;2023-02-08T01:26:11;-0.50;59.80
62575;DHT22;53112;45.602;11.904;2023-02-08T01:28:37;-0.50;60.10
62575;DHT22;53112;45.602;11.904;2023-02-08T01:31:28;-0.40;60.00
62575;DHT22;53112;45.602;11.904;2023-02-08T01:33:57;-0.40;59.90
62575;DHT22;53112;45.602;11.904;2023-02-08T01:36:24;-0.40;59.80
62575;DHT22;53112;45.602;11.904;2023-02-08T01:38:50;-0.40;59.40
62575;DHT22;53112;45.602;11.904;2023-02-08T01:41:28;-0.40;59.30
62575;DHT22;53112;45.602;11.904;2023-02-08T01:46:43;-0.50;59.40
62575;DHT22;53112;45.602;11.904;2023-02-08T01:52:11;-0.40;59.40
62575;DHT22;53112;45.602;11.904;2023-02-08T01:54:42;-0.30;59.20
62575;DHT22;53112;45.602;11.904;2023-02-08T01:57:10;-0.20;58.70
62575;DHT22;53112;45.602;11.904;2023-02-08T02:02:14;-0.10;58.60
62575;DHT22;53112;45.602;11.904;2023-02-08T02:04:41;-0.10;58.30
62575;DHT22;53112;45.602;11.904;2023-02-08T02:07:07;0.00;57.80
62575;DHT22;53112;45.602;11.904;2023-02-08T02:09:56;0.00;57.70
62575;DHT22;53112;45.602;11.904;2023-02-08T02:12:24;0.00;57.50
62575;DHT22;53112;45.602;11.904;2023-02-08T02:14:50;0.00;57.10
62575;DHT22;53112;45.602;11.904;2023-02-08T02:17:18;0.10;56.60
62575;DHT22;53112;45.602;11.904;2023-02-08T02:20:00;0.20;56.30
62575;DHT22;53112;45.602;11.904;2023-02-08T02:31:20;0.40;55.00
62575;DHT22;53112;45.602;11.904;2023-02-08T02:42:16;0.60;54.00
62575;DHT22;53112;45.602;11.904;2023-02-08T02:45:22;0.50;53.80
62575;DHT22;53112;45.602;11.904;2023-02-08T02:48:19;0.50;53.50
62575;DHT22;53112;45.602;11.904;2023-02-08T02:50:52;0.50;53.40
62575;DHT22;53112;45.602;11.904;2023-02-08T02:53:40;0.20;54.50
62575;DHT22;53112;45.602;11.904;2023-02-08T02:56:17;0.20;54.80
62575;DHT22;53112;45.602;11.904;2023-02-08T02:58:45;0.20;54.70
62575;DHT22;53112;45.602;11.904;2023-02-08T03:01:11;0.10;54.70
62575;DHT22;53112;45.602;11.904;2023-02-08T03:03:37;0.20;54.20
62575;DHT22;53112;45.602;11.904;2023-02-08T03:06:11;0.40;54.00
62575;DHT22;53112;45.602;11.904;2023-02-08T03:08:48;0.40;53.40
62575;DHT22;53112;45.602;11.904;2023-02-08T03:11:21;0.40;53.70
62575;DHT22;53112;45.602;11.904;2023-02-08T03:14:14;0.20;54.30
62575;DHT22;53112;45.602;11.904;2023-02-08T03:19:29;0.10;54.20
62575;DHT22;53112;45.602;11.904;2023-02-08T03:22:01;0.10;54.30
62575;DHT22;53112;45.602;11.904;2023-02-08T03:24:53;0.00;54.60
62575;DHT22;53112;45.602;11.904;2023-02-08T03:32:45;0.30;53.20
62575;DHT22;53112;45.602;11.904;2023-02-08T03:35:19;0.40;52.90
62575;DHT22;53112;45.602;11.904;2023-02-08T03:38:13;0.30;53.00
62575;DHT22;53112;45.602;11.904;2023-02-08T03:40:46;0.10;53.80
62575;DHT22;53112;45.602;11.904;2023-02-08T03:43:29;0.00;55.40
62575;DHT22;53112;45.602;11.904;2023-02-08T03:46:11;-0.10;55.70
62575;DHT22;53112;45.602;11.904;2023-02-08T03:48:41;-0.10;54.80
62575;DHT22;53112;45.602;11.904;2023-02-08T03:51:09;-0.10;55.50
62575;DHT22;53112;45.602;11.904;2023-02-08T03:53:37;-0.20;55.40
62575;DHT22;53112;45.602;11.904;2023-02-08T03:56:17;-0.20;55.50
62575;DHT22;53112;45.602;11.904;2023-02-08T03:58:54;-0.30;54.80
62575;DHT22;53112;45.602;11.904;2023-02-08T04:01:37;-0.30;54.60
62575;DHT22;53112;45.602;11.904;2023-02-08T04:04:06;-0.30;55.00
62575;DHT22;53112;45.602;11.904;2023-02-08T04:06:32;-0.30;55.50
62575;DHT22;53112;45.602;11.904;2023-02-08T04:08:58;-0.30;55.40
62575;DHT22;53112;45.602;11.904;2023-02-08T04:11:24;-0.20;55.40
62575;DHT22;53112;45.602;11.904;2023-02-08T04:13:50;-0.30;56.00
62575;DHT22;53112;45.602;11.904;2023-02-08T04:16:16;-0.50;56.50
62575;DHT22;53112;45.602;11.904;2023-02-08T04:18:41;-0.60;56.20
62575;DHT22;53112;45.602;11.904;2023-02-08T04:21:07;-0.50;55.80
62575;DHT22;53112;45.602;11.904;2023-02-08T04:23:33;-0.40;55.60
62575;DHT22;53112;45.602;11.904;2023-02-08T04:25:59;-0.30;55.30
62575;DHT22;53112;45.602;11.904;2023-02-08T04:28:25;-0.20;54.90
62575;DHT22;53112;45.602;11.904;2023-02-08T04:30:54;-0.30;55.20
62575;DHT22;53112;45.602;11.904;2023-02-08T04:33:21;-0.30;55.50
62575;DHT22;53112;45.602;11.904;2023-02-08T04:35:47;-0.20;55.80
62575;DHT22;53112;45.602;11.904;2023-02-08T04:38:13;-0.40;55.90
62575;DHT22;53112;45.602;11.904;2023-02-08T04:40:39;-0.50;55.70
62575;DHT22;53112;45.602;11.904;2023-02-08T04:43:05;-0.60;56.40
62575;DHT22;53112;45.602;11.904;2023-02-08T04:45:30;-0.70;56.60
62575;DHT22;53112;45.602;11.904;2023-02-08T04:48:00;-0.70;56.20
62575;DHT22;53112;45.602;11.904;2023-02-08T04:50:26;-0.50;55.50
62575;DHT22;53112;45.602;11.904;2023-02-08T04:52:52;-0.50;55.00
62575;DHT22;53112;45.602;11.904;2023-02-08T04:55:18;-0.60;55.50
62575;DHT22;53112;45.602;11.904;2023-02-08T04:57:44;-0.80;56.60
62575;DHT22;53112;45.602;11.904;2023-02-08T05:00:10;-0.80;57.30
62575;DHT22;53112;45.602;11.904;2023-02-08T05:02:36;-0.90;57.60
62575;DHT22;53112;45.602;11.904;2023-02-08T05:05:02;-0.90;58.30
62575;DHT22;53112;45.602;11.904;2023-02-08T05:07:29;-0.90;57.70
62575;DHT22;53112;45.602;11.904;2023-02-08T05:09:54;-0.90;57.50
62575;DHT22;53112;45.602;11.904;2023-02-08T05:12:20;-0.80;56.60
62575;DHT22;53112;45.602;11.904;2023-02-08T05:14:46;-0.80;56.30
62575;DHT22;53112;45.602;11.904;2023-02-08T05:17:12;-0.70;56.40
62575;DHT22;53112;45.602;11.904;2023-02-08T05:19:38;-0.60;55.90
62575;DHT22;53112;45.602;11.904;2023-02-08T05:22:04;-0.80;56.60
62575;DHT22;53112;45.602;11.904;2023-02-08T05:24:30;-0.70;56.60
62575;DHT22;53112;45.602;11.904;2023-02-08T05:26:56;-0.70;56.40
62575;DHT22;53112;45.602;11.904;2023-02-08T05:29:21;-0.70;55.70
62575;DHT22;53112;45.602;11.904;2023-02-08T05:31:47;-0.70;56.10
62575;DHT22;53112;45.602;11.904;2023-02-08T05:34:13;-0.70;56.40
62575;DHT22;53112;45.602;11.904;2023-02-08T05:36:39;-0.70;56.50
62575;DHT22;53112;45.602;11.904;2023-02-08T05:39:05;-0.80;57.00
62575;DHT22;53112;45.602;11.904;2023-02-08T05:41:31;-0.80;56.30
62575;DHT22;53112;45.602;11.904;2023-02-08T05:43:57;-0.80;56.10
62575;DHT22;53112;45.602;11.904;2023-02-08T05:46:23;-0.80;56.20
62575;DHT22;53112;45.602;11.904;2023-02-08T05:48:49;-0.80;55.90
62575;DHT22;53112;45.602;11.904;2023-02-08T05:51:14;-0.70;55.80
62575;DHT22;53112;45.602;11.904;2023-02-08T05:53:40;-0.70;55.80
62575;DHT22;53112;45.602;11.904;2023-02-08T05:56:08;-0.60;55.60
62575;DHT22;53112;45.602;11.904;2023-02-08T05:58:34;-0.70;56.20
62575;DHT22;53112;45.602;11.904;2023-02-08T06:01:00;-0.60;56.30
62575;DHT22;53112;45.602;11.904;2023-02-08T06:03:26;-0.70;56.30
62575;DHT22;53112;45.602;11.904;2023-02-08T06:05:52;-0.70;56.60
62575;DHT22;53112;45.602;11.904;2023-02-08T06:08:18;-0.70;56.60
62575;DHT22;53112;45.602;11.904;2023-02-08T06:10:47;-0.70;56.50
62575;DHT22;53112;45.602;11.904;2023-02-08T06:13:13;-0.60;56.20
62575;DHT22;53112;45.602;11.904;2023-02-08T06:15:40;-0.70;56.30
62575;DHT22;53112;45.602;11.904;2023-02-08T06:18:06;-0.70;56.20
62575;DHT22;53112;45.602;11.904;2023-02-08T06:20:34;-0.60;56.30
62575;DHT22;53112;45.602;11.904;2023-02-08T06:22:59;-0.70;56.50
62575;DHT22;53112;45.602;11.904;2023-02-08T06:25:26;-0.70;56.50
62575;DHT22;53112;45.602;11.904;2023-02-08T06:27:52;-0.70;56.80
62575;DHT22;53112;45.602;11.904;2023-02-08T06:30:18;-0.70;56.60
62575;DHT22;53112;45.602;11.904;2023-02-08T06:32:44;-0.70;56.40
62575;DHT22;53112;45.602;11.904;2023-02-08T06:35:09;-0.50;55.90
62575;DHT22;53112;45.602;11.904;2023-02-08T06:37:36;-0.50;55.50
62575;DHT22;53112;45.602;11.904;2023-02-08T06:40:03;-0.50;55.50
62575;DHT22;53112;45.602;11.904;2023-02-08T06:42:29;-0.40;55.20
62575;DHT22;53112;45.602;11.904;2023-02-08T06:44:54;-0.50;55.60
62575;DHT22;53112;45.602;11.904;2023-02-08T06:47:24;-0.50;55.90
62575;DHT22;53112;45.602;11.904;2023-02-08T06:49:50;-0.40;55.70
62575;DHT22;53112;45.602;11.904;2023-02-08T06:52:17;-0.30;55.10
62575;DHT22;53112;45.602;11.904;2023-02-08T06:54:43;-0.10;54.60
62575;DHT22;53112;45.602;11.904;2023-02-08T06:57:09;0.00;54.60
62575;DHT22;53112;45.602;11.904;2023-02-08T06:59:38;0.10;54.30
62575;DHT22;53112;45.602;11.904;2023-02-08T07:02:04;0.40;54.00
62575;DHT22;53112;45.602;11.904;2023-02-08T07:04:31;0.50;53.50
62575;DHT22;53112;45.602;11.904;2023-02-08T07:06:57;0.70;52.70
62575;DHT22;53112;45.602;11.904;2023-02-08T07:09:22;0.70;52.60
62575;DHT22;53112;45.602;11.904;2023-02-08T07:11:48;0.80;52.20
62575;DHT22;53112;45.602;11.904;2023-02-08T07:14:14;1.10;51.90
62575;DHT22;53112;45.602;11.904;2023-02-08T07:16:40;1.30;51.30
62575;DHT22;53112;45.602;11.904;2023-02-08T07:19:07;1.60;51.40
62575;DHT22;53112;45.602;11.904;2023-02-08T07:21:33;1.70;51.20
62575;DHT22;53112;45.602;11.904;2023-02-08T07:23:59;1.90;50.20
62575;DHT22;53112;45.602;11.904;2023-02-08T07:26:25;2.00;50.00
62575;DHT22;53112;45.602;11.904;2023-02-08T07:28:50;2.20;49.40
62575;DHT22;53112;45.602;11.904;2023-02-08T07:31:16;2.40;49.00
62575;DHT22;53112;45.602;11.904;2023-02-08T07:33:43;2.60;48.70
62575;DHT22;53112;45.602;11.904;2023-02-08T07:36:09;2.70;48.80
62575;DHT22;53112;45.602;11.904;2023-02-08T07:38:36;2.60;49.00
62575;DHT22;53112;45.602;11.904;2023-02-08T07:41:08;2.80;49.10
62575;DHT22;53112;45.602;11.904;2023-02-08T07:43:36;3.00;47.80
62575;DHT22;53112;45.602;11.904;2023-02-08T07:46:15;3.30;47.90
62575;DHT22;53112;45.602;11.904;2023-02-08T07:48:41;3.60;47.30
62575;DHT22;53112;45.602;11.904;2023-02-08T07:51:08;3.70;46.90
62575;DHT22;53112;45.602;11.904;2023-02-08T07:53:34;3.80;47.20
62575;DHT22;53112;45.602;11.904;2023-02-08T07:56:01;3.90;47.30
62575;DHT22;53112;45.602;11.904;2023-02-08T07:58:27;4.00;45.70
62575;DHT22;53112;45.602;11.904;2023-02-08T08:00:53;4.20;46.20
62575;DHT22;53112;45.602;11.904;2023-02-08T08:03:19;4.40;45.20
62575;DHT22;53112;45.602;11.904;2023-02-08T08:05:45;4.50;44.90
62575;DHT22;53112;45.602;11.904;2023-02-08T08:08:11;4.70;45.30
62575;DHT22;53112;45.602;11.904;2023-02-08T08:10:38;4.70;45.10
62575;DHT22;53112;45.602;11.904;2023-02-08T08:13:03;4.70;44.70
62575;DHT22;53112;45.602;11.904;2023-02-08T08:15:29;4.80;43.40
62575;DHT22;53112;45.602;11.904;2023-02-08T08:17:55;5.00;44.80
62575;DHT22;53112;45.602;11.904;2023-02-08T08:20:22;5.00;44.00
62575;DHT22;53112;45.602;11.904;2023-02-08T08:22:48;4.90;43.90
62575;DHT22;53112;45.602;11.904;2023-02-08T08:25:14;4.70;44.30
62575;DHT22;53112;45.602;11.904;2023-02-08T08:27:40;4.90;44.90
62575;DHT22;53112;45.602;11.904;2023-02-08T08:30:08;5.10;44.00
62575;DHT22;53112;45.602;11.904;2023-02-08T08:32:36;5.20;43.10
62575;DHT22;53112;45.602;11.904;2023-02-08T08:35:02;5.30;43.20
62575;DHT22;53112;45.602;11.904;2023-02-08T08:37:28;5.30;43.50
62575;DHT22;53112;45.602;11.904;2023-02-08T08:39:54;5.50;44.60
62575;DHT22;53112;45.602;11.904;2023-02-08T08:42:19;5.70;43.40
62575;DHT22;53112;45.602;11.904;2023-02-08T08:44:46;5.90;42.80
62575;DHT22;53112;45.602;11.904;2023-02-08T08:47:11;6.10;43.40
62575;DHT22;53112;45.602;11.904;2023-02-08T08:49:37;6.00;42.20
62575;DHT22;53112;45.602;11.904;2023-02-08T08:52:03;5.90;43.70
62575;DHT22;53112;45.602;11.904;2023-02-08T08:54:33;6.10;42.70
62575;DHT22;53112;45.602;11.904;2023-02-08T08:56:59;6.60;43.60
62575;DHT22;53112;45.602;11.904;2023-02-08T08:59:25;6.50;41.50
62575;DHT22;53112;45.602;11.904;2023-02-08T09:01:51;7.00;41.30
62575;DHT22;53112;45.602;11.904;2023-02-08T09:04:17;7.20;40.80
62575;DHT22;53112;45.602;11.904;2023-02-08T09:06:43;7.20;39.30
62575;DHT22;53112;45.602;11.904;2023-02-08T09:09:09;7.70;39.20
62575;DHT22;53112;45.602;11.904;2023-02-08T09:11:34;7.90;38.50
62575;DHT22;53112;45.602;11.904;2023-02-08T09:14:04;7.90;38.10
62575;DHT22;53112;45.602;11.904;2023-02-08T09:16:30;8.00;37.60
62575;DHT22;53112;45.602;11.904;2023-02-08T09:19:00;8.20;35.70
62575;DHT22;53112;45.602;11.904;2023-02-08T09:21:25;8.40;36.90
62575;DHT22;53112;45.602;11.904;2023-02-08T09:23:51;8.70;37.80
62575;DHT22;53112;45.602;11.904;2023-02-08T09:26:19;8.50;37.40
62575;DHT22;53112;45.602;11.904;2023-02-08T09:28:45;8.60;36.70
62575;DHT22;53112;45.602;11.904;2023-02-08T09:31:18;8.90;36.10
62575;DHT22;53112;45.602;11.904;2023-02-08T09:33:45;8.80;37.20
62575;DHT22;53112;45.602;11.904;2023-02-08T09:36:10;8.90;35.10
62575;DHT22;53112;45.602;11.904;2023-02-08T09:38:37;9.40;34.30
62575;DHT22;53112;45.602;11.904;2023-02-08T09:44:33;9.30;35.70
62575;DHT22;53112;45.602;11.904;2023-02-08T09:47:36;9.90;35.60
62575;DHT22;53112;45.602;11.904;2023-02-08T09:50:10;9.60;34.60
62575;DHT22;53112;45.602;11.904;2023-02-08T09:55:18;10.10;31.20
62575;DHT22;53112;45.602;11.904;2023-02-08T09:57:46;10.10;31.60
62575;DHT22;53112;45.602;11.904;2023-02-08T10:00:22;10.10;31.60
62575;DHT22;53112;45.602;11.904;2023-02-08T10:02:52;10.30;32.50
62575;DHT22;53112;45.602;11.904;2023-02-08T10:05:21;10.30;31.00
62575;DHT22;53112;45.602;11.904;2023-02-08T10:07:47;10.60;31.90
62575;DHT22;53112;45.602;11.904;2023-02-08T10:10:20;10.70;30.90
62575;DHT22;53112;45.602;11.904;2023-02-08T10:13:05;10.50;31.40
62575;DHT22;53112;45.602;11.904;2023-02-08T10:15:50;10.60;31.50
62575;DHT22;53112;45.602;11.904;2023-02-08T10:24:05;10.20;32.50
62575;DHT22;53112;45.602;11.904;2023-02-08T10:29:22;11.00;31.30
62575;DHT22;53112;45.602;11.904;2023-02-08T10:32:42;10.70;31.90
62575;DHT22;53112;45.602;11.904;2023-02-08T10:35:16;10.80;30.50
62575;DHT22;53112;45.602;11.904;2023-02-08T10:37:46;10.90;30.20
62575;DHT22;53112;45.602;11.904;2023-02-08T10:42:49;10.70;31.20
62575;DHT22;53112;45.602;11.904;2023-02-08T10:45:40;10.80;31.00
62575;DHT22;53112;45.602;11.904;2023-02-08T10:48:15;11.20;31.10
62575;DHT22;53112;45.602;11.904;2023-02-08T10:50:43;11.60;28.90
62575;DHT22;53112;45.602;11.904;2023-02-08T10:53:14;11.90;27.90
62575;DHT22;53112;45.602;11.904;2023-02-08T10:55:43;11.40;28.10
62575;DHT22;53112;45.602;11.904;2023-02-08T10:58:19;11.70;28.60
62575;DHT22;53112;45.602;11.904;2023-02-08T11:00:47;11.70;28.40
62575;DHT22;53112;45.602;11.904;2023-02-08T11:03:23;11.60;29.40
62575;DHT22;53112;45.602;11.904;2023-02-08T11:05:50;11.80;28.40
62575;DHT22;53112;45.602;11.904;2023-02-08T11:08:21;11.40;30.80
62575;DHT22;53112;45.602;11.904;2023-02-08T11:11:04;12.20;29.30
62575;DHT22;53112;45.602;11.904;2023-02-08T11:16:03;11.90;29.40
62575;DHT22;53112;45.602;11.904;2023-02-08T11:18:51;12.40;28.10
62575;DHT22;53112;45.602;11.904;2023-02-08T11:21:32;12.90;27.20
62575;DHT22;53112;45.602;11.904;2023-02-08T11:24:03;12.90;27.50
62575;DHT22;53112;45.602;11.904;2023-02-08T11:29:04;12.60;28.60
62575;DHT22;53112;45.602;11.904;2023-02-08T11:31:36;12.80;28.40
62575;DHT22;53112;45.602;11.904;2023-02-08T11:34:04;13.10;27.70
62575;DHT22;53112;45.602;11.904;2023-02-08T11:36:33;13.50;26.80
62575;DHT22;53112;45.602;11.904;2023-02-08T11:39:02;13.20;26.80
62575;DHT22;53112;45.602;11.904;2023-02-08T11:41:29;12.60;27.10
62575;DHT22;53112;45.602;11.904;2023-02-08T11:46:25;13.00;28.20
62575;DHT22;53112;45.602;11.904;2023-02-08T11:48:51;12.60;28.20
62575;DHT22;53112;45.602;11.904;2023-02-08T11:51:36;12.40;28.70
62575;DHT22;53112;45.602;11.904;2023-02-08T11:54:04;12.40;28.80
62575;DHT22;53112;45.602;11.904;2023-02-08T11:56:33;12.50;28.60
62575;DHT22;53112;45.602;11.904;2023-02-08T11:59:18;12.00;28.70
62575;DHT22;53112;45.602;11.904;2023-02-08T12:01:45;12.70;28.80
62575;DHT22;53112;45.602;11.904;2023-02-08T12:04:16;12.50;29.10
62575;DHT22;53112;45.602;11.904;2023-02-08T12:09:57;13.00;27.90
62575;DHT22;53112;45.602;11.904;2023-02-08T12:12:37;12.20;29.50
62575;DHT22;53112;45.602;11.904;2023-02-08T12:15:47;12.00;31.10
62575;DHT22;53112;45.602;11.904;2023-02-08T12:18:22;11.90;30.00
62575;DHT22;53112;45.602;11.904;2023-02-08T12:23:54;12.20;29.40
62575;DHT22;53112;45.602;11.904;2023-02-08T12:43:33;12.60;28.50
62575;DHT22;53112;45.602;11.904;2023-02-08T12:52:44;12.80;28.30
62575;DHT22;53112;45.602;11.904;2023-02-08T12:55:24;12.00;28.70
62575;DHT22;53112;45.602;11.904;2023-02-08T12:58:05;12.50;29.70
62575;DHT22;53112;45.602;11.904;2023-02-08T13:00:36;12.70;28.40
62575;DHT22;53112;45.602;11.904;2023-02-08T13:03:31;12.80;28.00
62575;DHT22;53112;45.602;11.904;2023-02-08T13:06:03;13.20;28.00
62575;DHT22;53112;45.602;11.904;2023-02-08T13:08:43;13.30;26.30
62575;DHT22;53112;45.602;11.904;2023-02-08T13:11:23;13.40;27.20
62575;DHT22;53112;45.602;11.904;2023-02-08T13:14:11;13.40;27.80
62575;DHT22;53112;45.602;11.904;2023-02-08T13:16:51;12.80;27.20
62575;DHT22;53112;45.602;11.904;2023-02-08T13:19:41;14.30;27.40
62575;DHT22;53112;45.602;11.904;2023-02-08T13:22:13;14.50;25.90
62575;DHT22;53112;45.602;11.904;2023-02-08T13:24:45;13.90;26.30
62575;DHT22;53112;45.602;11.904;2023-02-08T13:27:22;15.00;24.20
62575;DHT22;53112;45.602;11.904;2023-02-08T13:29:50;15.70;23.90
62575;DHT22;53112;45.602;11.904;2023-02-08T13:34:54;15.60;23.60
62575;DHT22;53112;45.602;11.904;2023-02-08T13:37:26;15.60;22.70
62575;DHT22;53112;45.602;11.904;2023-02-08T13:42:40;15.10;24.90
62575;DHT22;53112;45.602;11.904;2023-02-08T13:45:09;15.80;23.70
62575;DHT22;53112;45.602;11.904;2023-02-08T13:47:48;16.60;22.20
62575;DHT22;53112;45.602;11.904;2023-02-08T13:53:05;16.30;24.10
62575;DHT22;53112;45.602;11.904;2023-02-08T13:58:28;15.50;24.30
62575;DHT22;53112;45.602;11.904;2023-02-08T14:01:00;15.00;24.80
62575;DHT22;53112;45.602;11.904;2023-02-08T14:03:30;14.70;23.40
62575;DHT22;53112;45.602;11.904;2023-02-08T14:06:02;13.30;25.90
62575;DHT22;53112;45.602;11.904;2023-02-08T14:08:40;13.00;28.00
62575;DHT22;53112;45.602;11.904;2023-02-08T14:14:12;12.30;28.10
62575;DHT22;53112;45.602;11.904;2023-02-08T14:16:42;12.10;27.90
62575;DHT22;53112;45.602;11.904;2023-02-08T14:21:48;12.70;26.50
62575;DHT22;53112;45.602;11.904;2023-02-08T14:25:24;14.10;24.90
62575;DHT22;53112;45.602;11.904;2023-02-08T14:33:07;15.40;23.40
62575;DHT22;53112;45.602;11.904;2023-02-08T14:35:41;15.40;23.90
62575;DHT22;53112;45.602;11.904;2023-02-08T14:40:58;14.80;23.70
62575;DHT22;53112;45.602;11.904;2023-02-08T14:43:38;15.70;23.80
62575;DHT22;53112;45.602;11.904;2023-02-08T14:49:13;15.40;24.40
62575;DHT22;53112;45.602;11.904;2023-02-08T14:51:53;15.40;23.80
62575;DHT22;53112;45.602;11.904;2023-02-08T14:54:35;14.10;24.50
62575;DHT22;53112;45.602;11.904;2023-02-08T14:57:13;14.00;24.60
62575;DHT22;53112;45.602;11.904;2023-02-08T14:59:46;14.20;25.60
62575;DHT22;53112;45.602;11.904;2023-02-08T15:02:20;12.50;27.20
62575;DHT22;53112;45.602;11.904;2023-02-08T15:04:46;10.40;28.60
62575;DHT22;53112;45.602;11.904;2023-02-08T15:10:13;9.10;30.40
62575;DHT22;53112;45.602;11.904;2023-02-08T15:12:40;8.50;30.50
62575;DHT22;53112;45.602;11.904;2023-02-08T15:15:27;8.50;32.50
62575;DHT22;53112;45.602;11.904;2023-02-08T15:17:54;8.70;30.90
62575;DHT22;53112;45.602;11.904;2023-02-08T15:20:23;8.90;30.90
62575;DHT22;53112;45.602;11.904;2023-02-08T15:23:05;8.30;31.80
62575;DHT22;53112;45.602;11.904;2023-02-08T15:25:33;8.20;32.10
62575;DHT22;53112;45.602;11.904;2023-02-08T15:28:22;8.30;32.90
62575;DHT22;53112;45.602;11.904;2023-02-08T15:31:14;8.20;31.60
62575;DHT22;53112;45.602;11.904;2023-02-08T15:33:41;8.40;33.20
62575;DHT22;53112;45.602;11.904;2023-02-08T15:36:29;8.10;33.30
62575;DHT22;53112;45.602;11.904;2023-02-08T15:38:58;7.70;34.80
62575;DHT22;53112;45.602;11.904;2023-02-08T15:41:28;7.70;35.10
62575;DHT22;53112;45.602;11.904;2023-02-08T15:44:21;7.50;35.80
62575;DHT22;53112;45.602;11.904;2023-02-08T15:46:49;7.50;35.10
62575;DHT22;53112;45.602;11.904;2023-02-08T15:49:26;7.50;36.00
62575;DHT22;53112;45.602;11.904;2023-02-08T15:51:53;7.10;36.60
62575;DHT22;53112;45.602;11.904;2023-02-08T15:54:22;7.20;36.90
62575;DHT22;53112;45.602;11.904;2023-02-08T15:59:26;6.50;36.70
62575;DHT22;53112;45.602;11.904;2023-02-08T16:01:54;6.70;38.10
62575;DHT22;53112;45.602;11.904;2023-02-08T16:04:20;6.30;37.30
62575;DHT22;53112;45.602;11.904;2023-02-08T16:06:49;6.20;37.70
62575;DHT22;53112;45.602;11.904;2023-02-08T16:09:19;6.20;37.60
62575;DHT22;53112;45.602;11.904;2023-02-08T16:11:48;6.20;37.40
62575;DHT22;53112;45.602;11.904;2023-02-08T16:14:17;6.30;38.30
62575;DHT22;53112;45.602;11.904;2023-02-08T16:16:52;6.10;38.50
62575;DHT22;53112;45.602;11.904;2023-02-08T16:19:30;6.10;39.30
62575;DHT22;53112;45.602;11.904;2023-02-08T16:22:22;6.00;38.80
62575;DHT22;53112;45.602;11.904;2023-02-08T16:24:51;6.00;40.00
62575;DHT22;53112;45.602;11.904;2023-02-08T16:27:25;5.80;40.00
62575;DHT22;53112;45.602;11.904;2023-02-08T16:29:53;5.70;40.10
62575;DHT22;53112;45.602;11.904;2023-02-08T16:32:26;5.60;40.40
62575;DHT22;53112;45.602;11.904;2023-02-08T16:34:52;5.40;40.80
62575;DHT22;53112;45.602;11.904;2023-02-08T16:37:30;5.50;40.70
62575;DHT22;53112;45.602;11.904;2023-02-08T16:40:02;5.50;40.50
62575;DHT22;53112;45.602;11.904;2023-02-08T16:42:35;5.40;40.80
62575;DHT22;53112;45.602;11.904;2023-02-08T16:47:42;5.30;40.80
62575;DHT22;53112;45.602;11.904;2023-02-08T16:50:11;5.20;42.00
62575;DHT22;53112;45.602;11.904;2023-02-08T16:52:38;5.10;40.80
62575;DHT22;53112;45.602;11.904;2023-02-08T16:55:04;5.10;41.30
62575;DHT22;53112;45.602;11.904;2023-02-08T16:57:45;5.10;40.20
62575;DHT22;53112;45.602;11.904;2023-02-08T17:00:18;5.00;39.90
62575;DHT22;53112;45.602;11.904;2023-02-08T17:02:44;5.00;40.60
62575;DHT22;53112;45.602;11.904;2023-02-08T17:05:10;4.80;40.80
62575;DHT22;53112;45.602;11.904;2023-02-08T17:07:36;4.80;40.20
62575;DHT22;53112;45.602;11.904;2023-02-08T17:10:04;4.90;40.60
62575;DHT22;53112;45.602;11.904;2023-02-08T17:12:29;4.90;40.20
62575;DHT22;53112;45.602;11.904;2023-02-08T17:14:55;4.90;40.50
62575;DHT22;53112;45.602;11.904;2023-02-08T17:17:21;4.90;40.30
62575;DHT22;53112;45.602;11.904;2023-02-08T17:19:46;4.90;41.20
62575;DHT22;53112;45.602;11.904;2023-02-08T17:22:12;4.80;40.90
62575;DHT22;53112;45.602;11.904;2023-02-08T17:24:38;4.70;41.10
62575;DHT22;53112;45.602;11.904;2023-02-08T17:27:04;4.70;41.30
62575;DHT22;53112;45.602;11.904;2023-02-08T17:29:30;4.60;41.90
62575;DHT22;53112;45.602;11.904;2023-02-08T17:31:55;4.70;41.50
62575;DHT22;53112;45.602;11.904;2023-02-08T17:34:21;4.50;41.90
62575;DHT22;53112;45.602;11.904;2023-02-08T17:36:47;4.60;41.50
62575;DHT22;53112;45.602;11.904;2023-02-08T17:39:13;4.50;41.10
62575;DHT22;53112;45.602;11.904;2023-02-08T17:41:40;4.60;41.80
62575;DHT22;53112;45.602;11.904;2023-02-08T17:44:05;4.60;41.30
62575;DHT22;53112;45.602;11.904;2023-02-08T17:46:32;4.70;41.60